チタ の空港の天気 - METARとTAF

チタ・カダラ空港 ( UIAA / HTA ) - ロシア チタ
飛行場実況気象(Metar)
観測時間04/27 13:30 YAKT (04/27 04:30 UTC)
風向・風速北北東 8m/s
視程10km以上
天気現象
全天の4割程度の雲 雲底高度 1310m
気温15℃
湿度45%
気圧1006hPa
METARUIAA 270430Z 03008MPS 9999 SCT043 15/03 Q1006 R29/70D NOSIG RMK QFE697/0929
過去の天気等 Google飛行場航空写真 Wunderground天気予報

過去48時間のMETAR

飛行場予報(TAF)
発表時間: 4/27 11:00 YAKT (4/27 02:00 UTC)
予報対象時間: 27日12時 YAKT ~ 28日12時 YAKT
風向・風速北東 5m/s 瞬間風速 12m/s
視程10km以上
全天の4割程度の積乱雲 雲底高度 1,010m
27日12時 YAKT ~ 27日15時 YAKT に一時的に
天気現象弱いしゅう雨
全天の8割程度の積乱雲 雲底高度 430m
27日15時 YAKT ~ 28日9時 YAKT に一時的に
風向・風速北西 3m/s 瞬間風速 8m/s
TAF UIAA 270200Z 2703/2803 04005G12MPS 9999 SCT033CB
TEMPO 2703/2706 -SHRA BKN014CB
TEMPO 2706/2724 32003G08MPS